createdAt,value
2023-05-04T00:00:03.072Z,7.35
2023-05-04T00:01:02.742Z,7.29
2023-05-04T00:02:02.900Z,7.29
2023-05-04T00:03:02.771Z,7.33
2023-05-04T00:04:02.878Z,7.28
2023-05-04T00:05:02.682Z,7.31
2023-05-04T00:06:02.730Z,7.31
2023-05-04T00:07:02.663Z,7.32
2023-05-04T00:08:02.618Z,7.28
2023-05-04T00:09:02.606Z,7.25
2023-05-04T00:10:02.866Z,7.28
2023-05-04T00:11:02.616Z,7.33
2023-05-04T00:12:02.635Z,7.21
2023-05-04T00:13:02.603Z,7.29
2023-05-04T00:14:02.546Z,7.29
2023-05-04T00:15:02.558Z,7.38
2023-05-04T00:16:02.665Z,7.28
2023-05-04T00:17:02.579Z,7.28
2023-05-04T00:18:02.555Z,7.28
2023-05-04T00:19:02.512Z,7.32
2023-05-04T00:20:02.757Z,7.24
2023-05-04T00:21:02.498Z,7.33
2023-05-04T00:22:02.530Z,7.29
2023-05-04T00:23:02.523Z,7.32
2023-05-04T00:24:02.454Z,7.38
2023-05-04T00:25:02.442Z,7.39
2023-05-04T00:26:02.425Z,7.38
2023-05-04T00:27:02.413Z,7.43
2023-05-04T00:28:02.459Z,7.39
2023-05-04T00:29:02.394Z,7.42
2023-05-04T00:30:02.643Z,7.40
2023-05-04T00:31:02.376Z,7.39
2023-05-04T00:32:02.524Z,7.42
2023-05-04T00:33:02.537Z,7.36
2023-05-04T00:34:02.334Z,7.43
2023-05-04T00:35:02.318Z,7.45
2023-05-04T00:36:02.316Z,7.40
2023-05-04T00:37:02.384Z,7.38
2023-05-04T00:38:02.361Z,7.42
2023-05-04T00:39:02.308Z,7.35
2023-05-04T00:40:02.564Z,7.28
2023-05-04T00:41:02.277Z,7.28
2023-05-04T00:42:02.350Z,7.28
2023-05-04T00:43:02.258Z,7.32
2023-05-04T00:44:02.310Z,7.28
2023-05-04T00:45:02.228Z,7.35
2023-05-04T00:46:02.209Z,7.31
2023-05-04T00:47:02.307Z,7.25
2023-05-04T00:48:02.290Z,7.33
2023-05-04T00:49:02.275Z,7.25
2023-05-04T00:50:02.399Z,7.31
2023-05-04T00:51:02.189Z,7.29
2023-05-04T00:52:02.146Z,7.18
2023-05-04T00:53:02.143Z,7.29
2023-05-04T00:54:02.134Z,7.32
2023-05-04T00:55:02.214Z,7.29
2023-05-04T00:56:02.125Z,7.25
2023-05-04T00:57:02.099Z,7.25
2023-05-04T00:58:02.095Z,7.24
2023-05-04T00:59:02.091Z,7.25
2023-05-04T01:00:02.342Z,7.17
2023-05-04T01:01:02.109Z,7.17
2023-05-04T01:02:02.060Z,7.13
2023-05-04T01:03:02.173Z,7.18
2023-05-04T01:04:02.087Z,7.18
2023-05-04T01:05:02.083Z,7.18
2023-05-04T01:06:02.009Z,7.15
2023-05-04T01:07:02.023Z,7.18
2023-05-04T01:08:01.986Z,7.13
2023-05-04T01:09:01.975Z,7.14
2023-05-04T01:10:02.374Z,7.11
2023-05-04T01:11:02.000Z,7.10
2023-05-04T01:12:02.018Z,6.97
2023-05-04T01:13:01.995Z,7.05
2023-05-04T01:14:01.940Z,6.97
2023-05-04T01:15:01.909Z,7.05
2023-05-04T01:16:01.978Z,7.02
2023-05-04T01:17:01.918Z,7.03
2023-05-04T01:18:01.964Z,6.97
2023-05-04T01:19:01.879Z,7.00
2023-05-04T01:20:02.188Z,7.02
2023-05-04T01:21:01.915Z,6.99
2023-05-04T01:22:01.860Z,7.00
2023-05-04T01:23:01.821Z,6.89
2023-05-04T01:24:01.817Z,6.95
2023-05-04T01:25:01.840Z,7.02
2023-05-04T01:26:01.857Z,6.84
2023-05-04T01:27:01.792Z,6.87
2023-05-04T01:28:01.803Z,6.81
2023-05-04T01:29:01.787Z,6.82
2023-05-04T01:30:01.882Z,6.87
2023-05-04T01:31:01.861Z,6.85
2023-05-04T01:32:01.744Z,6.82
2023-05-04T01:33:01.753Z,6.87
2023-05-04T01:34:01.730Z,6.87
2023-05-04T01:35:01.704Z,6.85
2023-05-04T01:36:01.775Z,6.92
2023-05-04T01:37:01.701Z,6.84
2023-05-04T01:38:01.690Z,6.92
2023-05-04T01:39:01.671Z,6.92
2023-05-04T01:40:01.821Z,6.82
2023-05-04T01:41:01.737Z,6.81
2023-05-04T01:42:01.647Z,6.87
2023-05-04T01:43:01.646Z,6.79
2023-05-04T01:44:01.605Z,6.79
2023-05-04T01:45:01.646Z,6.84
2023-05-04T01:46:01.671Z,6.79
2023-05-04T01:47:01.570Z,6.77
2023-05-04T01:48:01.661Z,6.84
2023-05-04T01:49:01.574Z,6.79
2023-05-04T01:50:01.929Z,6.88
2023-05-04T01:51:01.554Z,6.84
2023-05-04T01:52:01.535Z,6.74
2023-05-04T01:53:01.500Z,6.79
2023-05-04T01:54:01.508Z,6.84
2023-05-04T01:55:01.495Z,6.87
2023-05-04T01:56:02.112Z,6.89
2023-05-04T01:57:01.452Z,6.79
2023-05-04T01:58:01.444Z,6.84
2023-05-04T01:59:01.448Z,6.74
2023-05-04T02:00:01.480Z,6.78
2023-05-04T02:01:01.488Z,6.82
2023-05-04T02:02:01.557Z,6.75
2023-05-04T02:03:01.491Z,6.78
2023-05-04T02:04:01.728Z,6.72
2023-05-04T02:05:01.389Z,6.74
2023-05-04T02:06:01.393Z,6.64
2023-05-04T02:07:01.374Z,6.66
2023-05-04T02:08:01.364Z,6.66
2023-05-04T02:09:01.391Z,6.67
2023-05-04T02:10:01.389Z,6.63
2023-05-04T02:11:01.316Z,6.62
2023-05-04T02:12:01.362Z,6.64
2023-05-04T02:13:01.458Z,6.63
2023-05-04T02:14:01.307Z,6.60
2023-05-04T02:15:01.332Z,6.64
2023-05-04T02:16:01.351Z,6.57
2023-05-04T02:17:01.315Z,6.52
2023-05-04T02:18:01.330Z,6.62
2023-05-04T02:19:01.276Z,6.57
2023-05-04T02:20:01.220Z,6.52
2023-05-04T02:21:01.217Z,6.59
2023-05-04T02:22:01.256Z,6.62
2023-05-04T02:23:01.205Z,6.66
2023-05-04T02:24:01.261Z,6.56
2023-05-04T02:25:01.204Z,6.62
2023-05-04T02:26:01.162Z,6.62
2023-05-04T02:27:01.157Z,6.66
2023-05-04T02:28:01.185Z,6.63
2023-05-04T02:29:01.139Z,6.62
2023-05-04T02:30:01.133Z,6.66
2023-05-04T02:31:01.151Z,6.60
2023-05-04T02:32:01.256Z,6.62
2023-05-04T02:33:01.146Z,6.62
2023-05-04T02:34:01.074Z,6.62
2023-05-04T02:35:01.205Z,6.51
2023-05-04T02:36:01.052Z,6.49
2023-05-04T02:37:01.050Z,6.54
2023-05-04T02:38:01.093Z,6.54
2023-05-04T02:39:01.034Z,6.52
2023-05-04T02:40:01.041Z,6.51
2023-05-04T02:41:01.007Z,6.51
2023-05-04T02:42:01.037Z,6.48
2023-05-04T02:43:01.042Z,6.49
2023-05-04T02:44:00.981Z,6.44
2023-05-04T02:45:00.978Z,6.42
2023-05-04T02:46:01.031Z,6.39
2023-05-04T02:47:00.956Z,6.31
2023-05-04T02:48:01.069Z,6.28
2023-05-04T02:49:00.983Z,6.30
2023-05-04T02:50:00.919Z,6.33
2023-05-04T02:51:00.923Z,6.31
2023-05-04T02:52:00.915Z,6.30
2023-05-04T02:53:00.894Z,6.33
2023-05-04T02:54:00.930Z,6.35
2023-05-04T02:55:00.868Z,6.30
2023-05-04T02:56:00.872Z,6.30
2023-05-04T02:57:00.855Z,6.30
2023-05-04T02:58:00.820Z,6.28
2023-05-04T02:59:00.883Z,6.28
2023-05-04T03:00:00.837Z,6.26
2023-05-04T03:01:00.836Z,6.19
2023-05-04T03:02:00.792Z,6.24
2023-05-04T03:03:00.881Z,6.19
2023-05-04T03:04:00.799Z,6.26
2023-05-04T03:05:00.763Z,6.20
2023-05-04T03:06:00.735Z,6.26
2023-05-04T03:07:00.782Z,6.28
2023-05-04T03:08:00.739Z,6.20
2023-05-04T03:09:00.765Z,6.24
2023-05-04T03:10:00.790Z,6.26
2023-05-04T03:11:00.707Z,6.35
2023-05-04T03:12:00.951Z,6.24
2023-05-04T03:13:00.759Z,6.19
2023-05-04T03:14:00.741Z,6.28
2023-05-04T03:15:00.699Z,6.28
2023-05-04T03:16:00.664Z,6.30
2023-05-04T03:17:00.712Z,6.30
2023-05-04T03:18:00.658Z,6.33
2023-05-04T03:19:00.656Z,6.24
2023-05-04T03:20:00.617Z,6.24
2023-05-04T03:21:00.583Z,6.28
2023-05-04T03:22:00.579Z,6.24
2023-05-04T03:23:00.576Z,6.22
2023-05-04T03:24:00.608Z,6.22
2023-05-04T03:25:00.645Z,6.24
2023-05-04T03:26:00.552Z,6.27
2023-05-04T03:27:00.543Z,6.22
2023-05-04T03:28:00.598Z,6.30
2023-05-04T03:29:00.485Z,6.17
2023-05-04T03:30:00.515Z,6.16
2023-05-04T03:31:00.499Z,6.16
2023-05-04T03:32:00.483Z,6.14
2023-05-04T03:33:00.522Z,6.16
2023-05-04T03:34:00.475Z,6.12
2023-05-04T03:35:02.631Z,6.14
2023-05-04T03:36:00.434Z,6.14
2023-05-04T03:37:00.414Z,6.09
2023-05-04T03:38:00.494Z,6.11
2023-05-04T03:39:00.394Z,6.19
2023-05-04T03:40:00.417Z,6.17
2023-05-04T03:41:00.438Z,6.16
2023-05-04T03:42:00.370Z,6.12
2023-05-04T03:43:00.422Z,6.09
2023-05-04T03:44:00.436Z,6.17
2023-05-04T03:45:03.208Z,6.14
2023-05-04T03:46:00.434Z,6.19
2023-05-04T03:47:00.338Z,6.16
2023-05-04T03:48:00.381Z,6.22
2023-05-04T03:49:00.292Z,6.19
2023-05-04T03:50:00.272Z,6.11
2023-05-04T03:51:00.273Z,6.16
2023-05-04T03:52:00.351Z,6.16
2023-05-04T03:53:00.282Z,6.19
2023-05-04T03:54:00.239Z,6.14
2023-05-04T03:55:00.231Z,6.12
2023-05-04T03:56:00.216Z,6.20
2023-05-04T03:57:00.210Z,6.20
2023-05-04T03:58:00.262Z,6.14
2023-05-04T03:59:00.210Z,6.12
2023-05-04T04:00:00.207Z,6.09
2023-05-04T04:01:00.199Z,6.08
2023-05-04T04:02:00.264Z,6.07
2023-05-04T04:03:00.228Z,6.17
2023-05-04T04:04:00.279Z,6.16
2023-05-04T04:05:00.194Z,6.07
2023-05-04T04:06:00.196Z,6.14
2023-05-04T04:07:00.121Z,6.12
2023-05-04T04:08:00.217Z,6.12
2023-05-04T04:09:00.093Z,6.14
2023-05-04T04:10:00.101Z,6.11
2023-05-04T04:11:00.058Z,6.11
2023-05-04T04:12:00.141Z,6.09
2023-05-04T04:13:00.155Z,6.11
2023-05-04T04:14:00.035Z,6.11
2023-05-04T04:15:00.041Z,6.07
2023-05-04T04:16:00.099Z,6.08
2023-05-04T04:17:00.000Z,6.08
2023-05-04T04:18:00.095Z,6.14
2023-05-04T04:18:59.980Z,6.09
2023-05-04T04:19:59.957Z,6.07
2023-05-04T04:20:59.963Z,6.08
2023-05-04T04:21:59.968Z,6.19
2023-05-04T04:22:59.925Z,6.20
2023-05-04T04:23:59.988Z,6.17
2023-05-04T04:24:59.965Z,6.11
2023-05-04T04:25:59.907Z,6.14
2023-05-04T04:26:59.920Z,6.12
2023-05-04T04:27:59.870Z,6.09
2023-05-04T04:28:59.930Z,6.14
2023-05-04T04:29:59.851Z,6.17
2023-05-04T04:30:59.929Z,6.14
2023-05-04T04:31:59.968Z,6.16
2023-05-04T04:32:59.889Z,6.14
2023-05-04T04:33:59.824Z,6.14
2023-05-04T04:34:59.889Z,6.22
2023-05-04T04:35:59.852Z,6.19
2023-05-04T04:36:59.805Z,6.12
2023-05-04T04:38:01.610Z,6.17
2023-05-04T04:38:59.764Z,6.12
2023-05-04T04:39:59.796Z,6.19
2023-05-04T04:40:59.815Z,6.11
2023-05-04T04:41:59.744Z,6.24
2023-05-04T04:42:59.750Z,6.19
2023-05-04T04:43:59.727Z,6.19
2023-05-04T04:44:59.885Z,6.24
2023-05-04T04:45:59.751Z,6.22
2023-05-04T04:46:59.832Z,6.22
2023-05-04T04:47:59.706Z,6.24
2023-05-04T04:48:59.642Z,6.24
2023-05-04T04:49:59.646Z,6.33
2023-05-04T04:50:59.722Z,6.35
2023-05-04T04:51:59.789Z,6.33
2023-05-04T04:52:59.626Z,6.28
2023-05-04T04:53:59.608Z,6.33
2023-05-04T04:54:59.605Z,6.28
2023-05-04T04:55:59.651Z,6.39
2023-05-04T04:56:59.602Z,6.35
2023-05-04T04:57:59.614Z,6.35
2023-05-04T04:58:59.579Z,6.41
2023-05-04T04:59:59.541Z,6.39
2023-05-04T05:00:59.537Z,6.35
2023-05-04T05:01:59.517Z,6.35
2023-05-04T05:02:59.570Z,6.38
2023-05-04T05:03:59.553Z,6.38
2023-05-04T05:04:59.572Z,6.41
2023-05-04T05:05:59.469Z,6.41
2023-05-04T05:06:59.469Z,6.41
2023-05-04T05:07:59.489Z,6.44
2023-05-04T05:08:59.490Z,6.30
2023-05-04T05:09:59.452Z,6.45
2023-05-04T05:10:59.441Z,6.44
2023-05-04T05:11:59.410Z,6.39
2023-05-04T05:12:59.445Z,6.48
2023-05-04T05:13:59.443Z,6.51
2023-05-04T05:14:59.411Z,6.52
2023-05-04T05:15:59.386Z,6.54
2023-05-04T05:16:59.584Z,6.52
2023-05-04T05:17:59.444Z,6.62
2023-05-04T05:18:59.399Z,6.63
2023-05-04T05:19:59.358Z,6.67
2023-05-04T05:20:59.392Z,6.66
2023-05-04T05:21:59.302Z,6.66
2023-05-04T05:22:59.286Z,6.74
2023-05-04T05:23:59.277Z,6.74
2023-05-04T05:24:59.282Z,6.85
2023-05-04T05:26:01.958Z,6.84
2023-05-04T05:26:59.254Z,6.82
2023-05-04T05:27:59.300Z,6.81
2023-05-04T05:28:59.229Z,6.84
2023-05-04T05:29:59.236Z,6.96
2023-05-04T05:30:59.288Z,6.89
2023-05-04T05:31:59.196Z,6.95
2023-05-04T05:32:59.338Z,7.00
2023-05-04T05:33:59.191Z,7.00
2023-05-04T05:34:59.197Z,7.06
2023-05-04T05:35:59.182Z,7.10
2023-05-04T05:36:59.233Z,7.07
2023-05-04T05:37:59.185Z,7.10
2023-05-04T05:38:59.192Z,7.13
2023-05-04T05:39:59.145Z,7.18
2023-05-04T05:40:59.196Z,7.20
2023-05-04T05:41:59.096Z,7.14
2023-05-04T05:42:59.112Z,7.21
2023-05-04T05:43:59.086Z,7.18
2023-05-04T05:44:59.105Z,7.18
2023-05-04T05:45:59.114Z,7.28
2023-05-04T05:46:59.058Z,7.28
2023-05-04T05:47:59.102Z,7.25
2023-05-04T05:48:59.027Z,7.23
2023-05-04T05:49:59.088Z,7.40
2023-05-04T05:50:59.002Z,7.31
2023-05-04T05:51:59.016Z,7.25
2023-05-04T05:52:59.038Z,7.29
2023-05-04T05:53:58.998Z,7.42
2023-05-04T05:55:00.966Z,7.40
2023-05-04T05:55:58.949Z,7.45
2023-05-04T05:56:58.935Z,7.50
2023-05-04T05:57:58.997Z,7.43
2023-05-04T05:58:58.921Z,7.54
2023-05-04T05:59:58.928Z,7.54
2023-05-04T06:00:58.889Z,7.57
2023-05-04T06:01:58.900Z,7.58
2023-05-04T06:02:59.026Z,7.56
2023-05-04T06:03:59.152Z,7.58
2023-05-04T06:04:58.882Z,7.58
2023-05-04T06:05:58.872Z,7.63
2023-05-04T06:06:58.918Z,7.66
2023-05-04T06:07:58.892Z,7.73
2023-05-04T06:08:58.815Z,7.80
2023-05-04T06:09:58.812Z,7.93
2023-05-04T06:10:58.813Z,7.87
2023-05-04T06:11:58.798Z,7.95
2023-05-04T06:12:58.834Z,7.94
2023-05-04T06:13:58.820Z,8.08
2023-05-04T06:14:58.827Z,8.05
2023-05-04T06:15:58.777Z,8.01
2023-05-04T06:16:58.784Z,8.08
2023-05-04T06:17:58.747Z,8.13
2023-05-04T06:18:58.712Z,8.19
2023-05-04T06:19:58.699Z,8.16
2023-05-04T06:20:58.758Z,8.16
2023-05-04T06:21:58.680Z,8.27
2023-05-04T06:22:58.670Z,8.30
2023-05-04T06:23:58.662Z,8.37
2023-05-04T06:25:03.742Z,8.30
2023-05-04T06:25:59.680Z,8.42
2023-05-04T06:26:58.659Z,8.49
2023-05-04T06:27:58.624Z,8.63
2023-05-04T06:28:58.618Z,8.64
2023-05-04T06:29:58.588Z,8.66
2023-05-04T06:30:58.879Z,8.71
2023-05-04T06:31:58.628Z,8.76
2023-05-04T06:32:58.597Z,8.89
2023-05-04T06:33:58.551Z,8.89
2023-05-04T06:34:58.553Z,8.91
2023-05-04T06:35:58.589Z,9.06
2023-05-04T06:36:58.516Z,9.11
2023-05-04T06:37:58.655Z,9.29
2023-05-04T06:38:58.490Z,9.22
2023-05-04T06:39:58.498Z,9.39
2023-05-04T06:40:58.527Z,9.48
2023-05-04T06:41:58.527Z,9.55
2023-05-04T06:42:58.458Z,9.55
2023-05-04T06:43:59.009Z,9.59
2023-05-04T06:44:58.436Z,9.68
2023-05-04T06:45:58.520Z,9.65
2023-05-04T06:46:58.413Z,9.76
2023-05-04T06:47:58.763Z,9.82
2023-05-04T06:48:58.494Z,9.74
2023-05-04T06:49:58.380Z,9.79
2023-05-04T06:51:00.224Z,9.91
2023-05-04T06:51:58.351Z,9.89
2023-05-04T06:52:58.355Z,9.91
2023-05-04T06:53:58.402Z,9.94
2023-05-04T06:54:58.375Z,10.02
2023-05-04T06:55:58.385Z,10.04
2023-05-04T06:56:58.298Z,10.20
2023-05-04T06:57:58.292Z,10.15
2023-05-04T06:58:58.281Z,10.28
2023-05-04T06:59:58.348Z,10.34
2023-05-04T07:00:58.285Z,10.40
2023-05-04T07:01:58.253Z,10.42
2023-05-04T07:02:58.268Z,10.38
2023-05-04T07:03:58.356Z,10.51
2023-05-04T07:04:58.270Z,10.60
2023-05-04T07:05:58.213Z,10.57
2023-05-04T07:06:58.188Z,10.71
2023-05-04T07:07:58.174Z,10.71
2023-05-04T07:08:58.205Z,10.78
2023-05-04T07:09:58.206Z,10.89
2023-05-04T07:10:58.324Z,10.96
2023-05-04T07:11:58.190Z,10.87
2023-05-04T07:12:58.162Z,10.96
2023-05-04T07:13:58.121Z,10.97
2023-05-04T07:14:58.146Z,10.96
2023-05-04T07:15:58.162Z,11.05
2023-05-04T07:16:58.090Z,10.99
2023-05-04T07:17:58.148Z,11.04
2023-05-04T07:18:58.054Z,11.15
2023-05-04T07:19:58.095Z,11.12
2023-05-04T07:21:10.756Z,11.15
2023-05-04T07:21:59.028Z,11.25
2023-05-04T07:22:58.005Z,11.27
2023-05-04T07:23:58.025Z,11.26
2023-05-04T07:24:58.019Z,11.33
2023-05-04T07:25:58.046Z,11.40
2023-05-04T07:26:57.966Z,11.37
2023-05-04T07:27:57.987Z,11.50
2023-05-04T07:28:57.940Z,11.54
2023-05-04T07:29:57.982Z,11.54
2023-05-04T07:30:57.998Z,11.65
2023-05-04T07:31:57.988Z,11.63
2023-05-04T07:32:57.996Z,11.69
2023-05-04T07:33:57.896Z,11.77
2023-05-04T07:34:57.933Z,11.77
2023-05-04T07:35:57.946Z,11.75
2023-05-04T07:36:57.859Z,11.77
2023-05-04T07:37:57.861Z,11.86
2023-05-04T07:38:57.824Z,11.83
2023-05-04T07:39:57.896Z,11.87
2023-05-04T07:40:57.809Z,11.88
2023-05-04T07:41:57.812Z,11.97
2023-05-04T07:42:57.803Z,12.02
2023-05-04T07:43:57.797Z,12.07
2023-05-04T07:44:57.865Z,12.04
2023-05-04T07:45:57.784Z,12.12
2023-05-04T07:46:57.751Z,12.10
2023-05-04T07:47:57.809Z,12.13
2023-05-04T07:48:57.735Z,12.07
2023-05-04T07:49:57.776Z,12.04
2023-05-04T07:50:57.760Z,12.13
2023-05-04T07:51:57.696Z,12.13
2023-05-04T07:52:57.705Z,12.20
2023-05-04T07:53:57.677Z,12.17
2023-05-04T07:54:57.738Z,12.28
2023-05-04T07:55:57.664Z,12.32
2023-05-04T07:56:57.702Z,12.39
2023-05-04T07:57:57.624Z,12.45
2023-05-04T07:58:57.651Z,12.43
2023-05-04T07:59:57.641Z,12.49
2023-05-04T08:00:57.613Z,12.57
2023-05-04T08:01:57.686Z,12.72
2023-05-04T08:02:57.603Z,12.70
2023-05-04T08:03:57.620Z,12.85
2023-05-04T08:04:57.649Z,12.94
2023-05-04T08:05:57.544Z,12.87
2023-05-04T08:06:57.570Z,12.87
2023-05-04T08:07:57.531Z,12.91
2023-05-04T08:08:57.516Z,12.94
2023-05-04T08:09:57.572Z,12.93
2023-05-04T08:11:08.021Z,13.05
2023-05-04T08:11:58.482Z,13.11
2023-05-04T08:12:57.559Z,13.16
2023-05-04T08:13:57.456Z,13.23
2023-05-04T08:14:57.496Z,13.20
2023-05-04T08:15:57.471Z,13.23
2023-05-04T08:16:57.439Z,13.31
2023-05-04T08:17:57.480Z,13.35
2023-05-04T08:18:57.495Z,13.42
2023-05-04T08:19:57.394Z,13.47
2023-05-04T08:20:57.422Z,13.50
2023-05-04T08:21:57.386Z,13.54
2023-05-04T08:22:57.362Z,13.57
2023-05-04T08:23:57.404Z,13.52
2023-05-04T08:24:57.378Z,13.56
2023-05-04T08:25:57.344Z,13.53
2023-05-04T08:27:07.167Z,13.62
2023-05-04T08:27:58.319Z,13.57
2023-05-04T08:28:57.358Z,13.74
2023-05-04T08:29:57.362Z,13.68
2023-05-04T08:30:57.303Z,13.85
2023-05-04T08:31:57.405Z,13.85
2023-05-04T08:32:57.305Z,13.95
2023-05-04T08:33:57.304Z,13.97
2023-05-04T08:34:57.238Z,14.04
2023-05-04T08:35:57.237Z,14.04
2023-05-04T08:36:57.794Z,14.08
2023-05-04T08:37:57.255Z,14.05
2023-05-04T08:38:57.201Z,14.15
2023-05-04T08:39:57.205Z,14.17
2023-05-04T08:40:57.171Z,14.14
2023-05-04T08:41:57.163Z,14.23
2023-05-04T08:42:57.232Z,14.32
2023-05-04T08:43:57.146Z,14.33
2023-05-04T08:44:57.143Z,14.40
2023-05-04T08:45:57.137Z,14.43
2023-05-04T08:46:57.125Z,14.54
2023-05-04T08:47:57.190Z,14.50
2023-05-04T08:48:57.126Z,14.50
2023-05-04T08:49:57.101Z,14.51
2023-05-04T08:50:57.076Z,14.54
2023-05-04T08:51:57.058Z,14.60
2023-05-04T08:52:57.119Z,14.68
2023-05-04T08:53:57.054Z,14.65
2023-05-04T08:54:57.163Z,14.54
2023-05-04T08:55:57.022Z,14.72
2023-05-04T08:56:57.043Z,14.77
2023-05-04T08:57:57.053Z,14.78
2023-05-04T08:58:57.067Z,14.84
2023-05-04T08:59:56.988Z,14.81
2023-05-04T09:00:57.045Z,14.82
2023-05-04T09:01:57.000Z,14.82
2023-05-04T09:02:57.051Z,14.81
2023-05-04T09:03:57.192Z,14.85
2023-05-04T09:04:56.919Z,14.81
2023-05-04T09:05:56.944Z,14.78
2023-05-04T09:06:56.956Z,14.77
2023-05-04T09:07:56.937Z,14.79
2023-05-04T09:08:56.886Z,14.79
2023-05-04T09:09:56.935Z,14.81
2023-05-04T09:10:56.850Z,14.81
2023-05-04T09:11:56.877Z,14.81
2023-05-04T09:12:56.951Z,14.78
2023-05-04T09:13:56.832Z,14.77
2023-05-04T09:14:56.835Z,14.77
2023-05-04T09:15:56.793Z,14.70
2023-05-04T09:16:56.821Z,14.81
2023-05-04T09:17:57.803Z,14.84
2023-05-04T09:18:56.781Z,14.85
2023-05-04T09:19:56.826Z,14.84
2023-05-04T09:20:56.807Z,14.89
2023-05-04T09:21:56.746Z,14.99
2023-05-04T09:22:56.728Z,14.94
2023-05-04T09:23:56.755Z,15.03
2023-05-04T09:24:56.711Z,15.00
2023-05-04T09:25:56.764Z,15.03
2023-05-04T09:26:56.691Z,15.06
2023-05-04T09:27:56.702Z,15.09
2023-05-04T09:28:56.669Z,15.15
2023-05-04T09:29:56.658Z,15.14
2023-05-04T09:30:56.707Z,15.18
2023-05-04T09:31:56.702Z,15.21
2023-05-04T09:32:56.650Z,15.24
2023-05-04T09:33:56.666Z,15.22
2023-05-04T09:34:56.589Z,15.27
2023-05-04T09:35:56.607Z,15.27
2023-05-04T09:36:56.689Z,15.27
2023-05-04T09:37:56.583Z,15.31
2023-05-04T09:38:56.550Z,15.35
2023-05-04T09:39:56.646Z,15.36
2023-05-04T09:40:56.554Z,15.35
2023-05-04T09:41:56.566Z,15.43
2023-05-04T09:42:56.536Z,15.39
2023-05-04T09:43:56.497Z,15.46
2023-05-04T09:44:56.489Z,15.52
2023-05-04T09:45:56.507Z,15.59
2023-05-04T09:46:56.520Z,15.59
2023-05-04T09:47:56.506Z,15.57
2023-05-04T09:48:56.460Z,15.52
2023-05-04T09:49:56.431Z,15.54
2023-05-04T09:50:56.421Z,15.59
2023-05-04T09:51:56.982Z,15.70
2023-05-04T09:52:56.407Z,15.73
2023-05-04T09:53:56.380Z,15.73
2023-05-04T09:54:56.412Z,15.84
2023-05-04T09:55:56.398Z,15.86
2023-05-04T09:56:56.359Z,15.95
2023-05-04T09:57:56.402Z,16.04
2023-05-04T09:58:56.352Z,16.08
2023-05-04T09:59:56.332Z,16.02
2023-05-04T10:00:56.335Z,16.08
2023-05-04T10:01:57.401Z,16.20
2023-05-04T10:02:56.377Z,16.20
2023-05-04T10:03:56.283Z,16.17
2023-05-04T10:04:56.277Z,16.24
2023-05-04T10:05:56.359Z,16.16
2023-05-04T10:06:56.297Z,16.15
2023-05-04T10:07:56.349Z,16.21
2023-05-04T10:08:56.221Z,16.26
2023-05-04T10:09:56.219Z,16.32
2023-05-04T10:10:56.208Z,16.32
2023-05-04T10:11:57.444Z,16.35
2023-05-04T10:12:56.282Z,16.32
2023-05-04T10:13:56.183Z,16.41
2023-05-04T10:14:56.179Z,16.39
2023-05-04T10:15:56.159Z,16.32
2023-05-04T10:16:56.154Z,16.33
2023-05-04T10:17:56.340Z,16.35
2023-05-04T10:18:56.143Z,16.38
2023-05-04T10:19:56.109Z,16.31
2023-05-04T10:20:56.099Z,16.39
2023-05-04T10:21:56.104Z,16.39
2023-05-04T10:22:56.144Z,16.31
2023-05-04T10:23:56.100Z,16.32
2023-05-04T10:24:56.138Z,16.35
2023-05-04T10:25:56.075Z,16.32
2023-05-04T10:26:56.031Z,16.35
2023-05-04T10:27:56.036Z,16.41
2023-05-04T10:28:56.043Z,16.38
2023-05-04T10:29:56.111Z,16.41
2023-05-04T10:30:56.049Z,16.39
2023-05-04T10:31:56.078Z,16.38
2023-05-04T10:32:56.083Z,16.39
2023-05-04T10:33:55.963Z,16.38
2023-05-04T10:34:57.375Z,16.36
2023-05-04T10:35:55.999Z,16.42
2023-05-04T10:36:55.930Z,16.43
2023-05-04T10:37:55.918Z,16.47
2023-05-04T10:38:55.920Z,16.46
2023-05-04T10:39:55.980Z,16.49
2023-05-04T10:40:55.961Z,16.39
2023-05-04T10:41:55.878Z,16.42
2023-05-04T10:42:55.877Z,16.43
2023-05-04T10:43:55.842Z,16.38
2023-05-04T10:44:55.870Z,16.51
2023-05-04T10:45:55.898Z,16.43
2023-05-04T10:46:56.819Z,16.49
2023-05-04T10:47:56.895Z,16.50
2023-05-04T10:48:55.822Z,16.57
2023-05-04T10:49:55.782Z,16.66
2023-05-04T10:50:55.836Z,16.68
2023-05-04T10:51:55.770Z,16.81
2023-05-04T10:52:56.775Z,16.86
2023-05-04T10:53:55.754Z,16.87
2023-05-04T10:54:55.741Z,16.91
2023-05-04T10:55:55.772Z,16.94
2023-05-04T10:56:55.715Z,17.06
2023-05-04T10:57:55.756Z,17.11
2023-05-04T10:58:55.743Z,17.08
2023-05-04T10:59:55.713Z,17.04
2023-05-04T11:00:55.766Z,17.20
2023-05-04T11:01:55.680Z,17.16
2023-05-04T11:02:55.792Z,17.19
2023-05-04T11:03:55.690Z,17.16
2023-05-04T11:04:55.628Z,17.20
2023-05-04T11:05:55.660Z,17.26
2023-05-04T11:06:55.629Z,17.33
2023-05-04T11:07:55.652Z,17.34
2023-05-04T11:08:55.600Z,17.27
2023-05-04T11:09:55.565Z,17.45
2023-05-04T11:10:55.580Z,17.51
2023-05-04T11:11:55.575Z,17.56
2023-05-04T11:12:55.811Z,17.63
2023-05-04T11:13:55.542Z,17.52
2023-05-04T11:14:55.515Z,17.60
2023-05-04T11:15:55.510Z,17.65
2023-05-04T11:17:55.586Z,17.56
2023-05-04T11:18:55.505Z,17.65
2023-05-04T11:19:55.494Z,17.64
2023-05-04T11:20:55.449Z,17.54
2023-05-04T11:21:55.441Z,17.59
2023-05-04T11:22:55.487Z,17.70
2023-05-04T11:23:55.464Z,17.64
2023-05-04T11:24:56.243Z,17.65
2023-05-04T11:25:55.456Z,17.78
2023-05-04T11:26:55.442Z,17.79
2023-05-04T11:27:55.401Z,17.86
2023-05-04T11:28:55.424Z,17.97
2023-05-04T11:29:55.403Z,18.04
2023-05-04T11:30:56.183Z,18.00
2023-05-04T11:31:55.444Z,17.95
2023-05-04T11:32:55.357Z,18.03
2023-05-04T11:33:55.380Z,18.00
2023-05-04T11:34:55.305Z,18.04
2023-05-04T11:35:55.367Z,18.04
2023-05-04T11:36:55.284Z,17.95
2023-05-04T11:37:55.279Z,17.95
2023-05-04T11:38:55.267Z,18.10
2023-05-04T11:39:55.267Z,18.08
2023-05-04T11:40:55.295Z,18.05
2023-05-04T11:41:55.263Z,18.01
2023-05-04T11:42:56.969Z,17.95
2023-05-04T11:43:55.226Z,17.92
2023-05-04T11:44:55.206Z,17.95
2023-05-04T11:45:55.234Z,18.04
2023-05-04T11:46:55.193Z,18.08
2023-05-04T11:47:55.418Z,18.04
2023-05-04T11:48:55.210Z,18.18
2023-05-04T11:49:55.165Z,18.16
2023-05-04T11:50:55.146Z,18.18
2023-05-04T11:51:55.154Z,18.22
2023-05-04T11:52:55.159Z,18.22
2023-05-04T11:53:55.146Z,18.22
2023-05-04T11:54:55.891Z,18.18
2023-05-04T11:55:55.159Z,18.22
2023-05-04T11:56:55.082Z,18.16
2023-05-04T11:57:55.144Z,18.16
2023-05-04T11:58:55.060Z,18.19
2023-05-04T11:59:55.133Z,18.26
2023-05-04T12:00:55.967Z,18.29
2023-05-04T12:01:55.032Z,18.41
2023-05-04T12:02:55.122Z,18.29
2023-05-04T12:03:55.177Z,18.52
2023-05-04T12:04:54.999Z,18.52
2023-05-04T12:05:55.017Z,18.58
2023-05-04T12:06:54.984Z,18.68
2023-05-04T12:07:55.018Z,18.65
2023-05-04T12:08:54.943Z,18.68
2023-05-04T12:09:55.008Z,18.75
2023-05-04T12:10:54.929Z,18.78
2023-05-04T12:11:54.950Z,18.84
2023-05-04T12:12:54.955Z,18.81
2023-05-04T12:13:54.889Z,18.83
2023-05-04T12:14:54.939Z,18.88
2023-05-04T12:15:54.974Z,18.81
2023-05-04T12:16:54.883Z,18.81
2023-05-04T12:17:54.929Z,18.78
2023-05-04T12:18:54.838Z,18.90
2023-05-04T12:19:54.846Z,18.93
2023-05-04T12:20:54.878Z,18.84
2023-05-04T12:21:54.819Z,18.92
2023-05-04T12:22:54.805Z,18.98
2023-05-04T12:23:54.812Z,18.96
2023-05-04T12:24:54.766Z,19.00
2023-05-04T12:25:58.061Z,19.12
2023-05-04T12:26:54.775Z,19.11
2023-05-04T12:27:54.754Z,19.15
2023-05-04T12:28:54.742Z,19.19
2023-05-04T12:29:54.751Z,19.15
2023-05-04T12:30:54.764Z,19.12
2023-05-04T12:31:54.867Z,19.19
2023-05-04T12:32:54.751Z,19.21
2023-05-04T12:33:54.682Z,19.22
2023-05-04T12:34:54.671Z,19.24
2023-05-04T12:35:54.731Z,19.21
2023-05-04T12:36:54.698Z,19.22
2023-05-04T12:37:54.686Z,19.29
2023-05-04T12:38:54.615Z,19.31
2023-05-04T12:39:54.617Z,19.41
2023-05-04T12:40:54.603Z,19.40
2023-05-04T12:41:54.725Z,19.24
2023-05-04T12:42:54.581Z,19.26
2023-05-04T12:43:54.573Z,19.19
2023-05-04T12:44:54.614Z,19.29
2023-05-04T12:45:54.638Z,19.30
2023-05-04T12:46:54.528Z,19.31
2023-05-04T12:47:54.669Z,19.26
2023-05-04T12:48:54.510Z,19.22
2023-05-04T12:49:54.510Z,19.27
2023-05-04T12:50:54.491Z,19.22
2023-05-04T12:51:54.483Z,19.29
2023-05-04T12:52:54.553Z,19.26
2023-05-04T12:53:54.479Z,19.40
2023-05-04T12:54:54.467Z,19.45
2023-05-04T12:55:54.435Z,19.41
2023-05-04T12:56:54.426Z,19.33
2023-05-04T12:57:54.630Z,19.36
2023-05-04T12:58:54.386Z,19.49
2023-05-04T12:59:54.395Z,19.47
2023-05-04T13:00:54.437Z,19.33
2023-05-04T13:01:54.460Z,19.39
2023-05-04T13:02:54.480Z,19.49
2023-05-04T13:03:54.415Z,19.59
2023-05-04T13:04:54.323Z,19.66
2023-05-04T13:05:54.341Z,19.77
2023-05-04T13:06:54.317Z,19.73